Time;durP1;ratioP1;P1;durP2;ratioP2;P2;SDS_P1;SDS_P2;PMS_P1;PMS_P2;Temp;Humidity;BMP_temperature;BMP_pressure;BME280_temperature;BME280_humidity;BME280_pressure;Samples;Min_cycle;Max_cycle;Signal;HPM_P1;HPM_P2
2023/12/18 00:02:16;;;;;;;18;9.8;;;;;;;4.09;82.87;;;;;
2023/12/18 00:13:15;;;;;;;18;9.8;;;;;;;3.97;82.86;;;;;
2023/12/18 00:24:15;;;;;;;16.1;8;;;;;;;3.8;82.98;;;;;
2023/12/18 00:35:16;;;;;;;16.1;8;;;;;;;3.7;83.29;;;;;
2023/12/18 00:46:15;;;;;;;16.1;8;;;;;;;3.49;83.43;;;;;
2023/12/18 00:56:15;;;;;;;15.6;8.8;;;;;;;3.41;83.85;;;;;
2023/12/18 01:07:15;;;;;;;15.6;8.8;;;;;;;3.24;84.3;;;;;
2023/12/18 01:17:15;;;;;;;15.6;8.8;;;;;;;3.08;84.42;;;;;
2023/12/18 01:27:15;;;;;;;21.4;10.8;;;;;;;2.94;84.63;;;;;
2023/12/18 01:37:15;;;;;;;21.4;10.8;;;;;;;2.76;84.77;;;;;
2023/12/18 01:47:15;;;;;;;21.4;10.8;;;;;;;2.71;85.38;;;;;
2023/12/18 01:58:15;;;;;;;13.3;8.4;;;;;;;2.61;85.46;;;;;
2023/12/18 02:09:15;;;;;;;13.3;8.4;;;;;;;2.61;86.35;;;;;
2023/12/18 02:19:15;;;;;;;13.3;8.4;;;;;;;2.88;86.73;;;;;
2023/12/18 02:29:16;;;;;;;12.2;7.6;;;;;;;2.9;86.35;;;;;
2023/12/18 02:40:15;;;;;;;12.2;7.6;;;;;;;2.9;86.18;;;;;
2023/12/18 02:51:15;;;;;;;11.4;5.8;;;;;;;2.91;85.98;;;;;
2023/12/18 03:01:16;;;;;;;11.4;5.8;;;;;;;2.81;85.64;;;;;
2023/12/18 03:12:15;;;;;;;11.4;5.8;;;;;;;2.61;85.41;;;;;
2023/12/18 03:22:15;;;;;;;12;5.6;;;;;;;2.46;85.48;;;;;
2023/12/18 03:32:16;;;;;;;12;5.6;;;;;;;2.33;85.72;;;;;
2023/12/18 03:43:15;;;;;;;12;5.6;;;;;;;2.16;85.63;;;;;
2023/12/18 03:53:15;;;;;;;9.8;5;;;;;;;2.05;85.88;;;;;
2023/12/18 04:03:15;;;;;;;9.8;5;;;;;;;1.96;86.08;;;;;
2023/12/18 04:14:15;;;;;;;9.8;5;;;;;;;2;86.7;;;;;
2023/12/18 04:24:15;;;;;;;12.7;7.7;;;;;;;1.99;86.77;;;;;
2023/12/18 04:35:15;;;;;;;12.7;7.7;;;;;;;2.06;86.82;;;;;
2023/12/18 04:45:15;;;;;;;12.7;7.7;;;;;;;2.21;87.37;;;;;
2023/12/18 04:55:15;;;;;;;13.2;6.5;;;;;;;2.23;86.74;;;;;
2023/12/18 05:06:16;;;;;;;13.2;6.5;;;;;;;2.26;86.46;;;;;
2023/12/18 05:17:15;;;;;;;13.2;6.5;;;;;;;2.37;86.41;;;;;
2023/12/18 05:27:17;;;;;;;12.6;7.2;;;;;;;2.37;86.14;;;;;
2023/12/18 05:38:16;;;;;;;12.6;7.2;;;;;;;2.41;86;;;;;
2023/12/18 05:48:16;;;;;;;12.6;7.2;;;;;;;2.48;85.64;;;;;
2023/12/18 05:59:15;;;;;;;13.3;7.2;;;;;;;2.49;85.21;;;;;
2023/12/18 06:09:16;;;;;;;13.3;7.2;;;;;;;2.44;85.05;;;;;
2023/12/18 06:20:16;;;;;;;14.8;8.3;;;;;;;2.48;85.24;;;;;
2023/12/18 06:31:16;;;;;;;14.8;8.3;;;;;;;2.65;84.98;;;;;
2023/12/18 06:42:16;;;;;;;14.8;8.3;;;;;;;2.69;84.57;;;;;
2023/12/18 06:53:16;;;;;;;15.5;9.4;;;;;;;2.63;84.38;;;;;
2023/12/18 07:03:16;;;;;;;15.5;9.4;;;;;;;2.71;84.63;;;;;
2023/12/18 07:13:16;;;;;;;15.5;9.4;;;;;;;2.92;84.59;;;;;
2023/12/18 07:24:16;;;;;;;10.3;5.8;;;;;;;3.11;84.04;;;;;
2023/12/18 07:34:16;;;;;;;10.3;5.8;;;;;;;3.16;84.01;;;;;
2023/12/18 07:44:16;;;;;;;10.3;5.8;;;;;;;3.52;82.73;;;;;
2023/12/18 07:55:16;;;;;;;8.9;4.5;;;;;;;3.9;81.48;;;;;
2023/12/18 08:06:16;;;;;;;8.9;4.5;;;;;;;4.15;80.54;;;;;
2023/12/18 08:16:16;;;;;;;8.9;4.5;;;;;;;4.37;79.9;;;;;
2023/12/18 08:26:17;;;;;;;10.1;6;;;;;;;4.6;79.19;;;;;
2023/12/18 08:37:16;;;;;;;10.1;6;;;;;;;4.78;79.17;;;;;
2023/12/18 08:47:16;;;;;;;10.1;6;;;;;;;4.91;78.05;;;;;
2023/12/18 08:58:16;;;;;;;24.5;11.3;;;;;;;5.24;77.83;;;;;
2023/12/18 09:09:16;;;;;;;24.5;11.3;;;;;;;5.51;77.67;;;;;
2023/12/18 09:19:16;;;;;;;21.6;12.2;;;;;;;5.84;77.18;;;;;
2023/12/18 09:29:16;;;;;;;21.6;12.2;;;;;;;6.19;75.57;;;;;
2023/12/18 09:40:16;;;;;;;21.6;12.2;;;;;;;6.66;74.2;;;;;
2023/12/18 09:50:16;;;;;;;12.5;7.8;;;;;;;7.14;73.25;;;;;
2023/12/18 10:01:16;;;;;;;12.5;7.8;;;;;;;7.64;72.47;;;;;
2023/12/18 10:11:16;;;;;;;12.5;7.8;;;;;;;8.27;68.76;;;;;
2023/12/18 10:22:16;;;;;;;12.9;7.4;;;;;;;8.8;67.04;;;;;
2023/12/18 10:32:16;;;;;;;12.9;7.4;;;;;;;9.28;65.02;;;;;
2023/12/18 10:42:16;;;;;;;12.9;7.4;;;;;;;9.63;64.26;;;;;
2023/12/18 10:53:16;;;;;;;11.2;7;;;;;;;10.09;63.54;;;;;
2023/12/18 11:03:18;;;;;;;11.2;7;;;;;;;10.37;62;;;;;
2023/12/18 11:14:16;;;;;;;11.2;7;;;;;;;10.69;61.86;;;;;
2023/12/18 11:24:16;;;;;;;14.5;10;;;;;;;10.9;61.24;;;;;
2023/12/18 11:35:16;;;;;;;14.5;10;;;;;;;11.14;60.74;;;;;
2023/12/18 11:46:16;;;;;;;14.5;10;;;;;;;11.4;60.74;;;;;
2023/12/18 11:56:16;;;;;;;12.3;8.4;;;;;;;11.55;60.51;;;;;
2023/12/18 12:06:16;;;;;;;12.3;8.4;;;;;;;11.74;59.61;;;;;
2023/12/18 12:16:17;;;;;;;12.3;8.4;;;;;;;11.73;59.99;;;;;
2023/12/18 12:27:16;;;;;;;7.9;4.4;;;;;;;11.59;59.72;;;;;
2023/12/18 12:37:16;;;;;;;7.9;4.4;;;;;;;11.54;59.31;;;;;
2023/12/18 12:48:16;;;;;;;7.9;4.4;;;;;;;11.47;60.28;;;;;
2023/12/18 12:58:16;;;;;;;6.4;3.8;;;;;;;11.37;60.21;;;;;
2023/12/18 13:08:16;;;;;;;6.4;3.8;;;;;;;11.26;59.95;;;;;
2023/12/18 13:19:16;;;;;;;8.1;4.2;;;;;;;11.12;60.31;;;;;
2023/12/18 13:30:16;;;;;;;8.1;4.2;;;;;;;10.89;60.55;;;;;
2023/12/18 13:40:16;;;;;;;8.1;4.2;;;;;;;10.64;61.63;;;;;
2023/12/18 13:51:16;;;;;;;7.2;4.1;;;;;;;10.5;61.77;;;;;
2023/12/18 14:02:16;;;;;;;7.2;4.1;;;;;;;10.37;62.56;;;;;
2023/12/18 14:12:16;;;;;;;7.2;4.1;;;;;;;10.17;63.27;;;;;
2023/12/18 14:23:16;;;;;;;7.6;4.2;;;;;;;9.77;63.21;;;;;
2023/12/18 14:33:16;;;;;;;7.6;4.2;;;;;;;9.44;63.01;;;;;
2023/12/18 14:44:16;;;;;;;7.6;4.2;;;;;;;9.03;64.07;;;;;
2023/12/18 14:54:16;;;;;;;8.6;4.2;;;;;;;8.67;64.87;;;;;
2023/12/18 15:05:16;;;;;;;8.6;4.2;;;;;;;8.37;65.76;;;;;
2023/12/18 15:16:17;;;;;;;8.6;4.2;;;;;;;8.25;66.15;;;;;
2023/12/18 15:27:16;;;;;;;9.6;4.2;;;;;;;8.22;65.81;;;;;
2023/12/18 15:37:16;;;;;;;9.6;4.2;;;;;;;8.19;66.1;;;;;
2023/12/18 15:48:16;;;;;;;9.6;4.2;;;;;;;8.19;65.89;;;;;
2023/12/18 15:59:16;;;;;;;11.1;5.6;;;;;;;8.26;65.24;;;;;
2023/12/18 16:09:16;;;;;;;11.1;5.6;;;;;;;8.3;64.48;;;;;
2023/12/18 16:20:16;;;;;;;12.3;6.8;;;;;;;8.2;64.92;;;;;
2023/12/18 16:30:16;;;;;;;12.3;6.8;;;;;;;8.1;65.63;;;;;
2023/12/18 16:41:16;;;;;;;12.3;6.8;;;;;;;8.15;64.4;;;;;
2023/12/18 16:51:16;;;;;;;19.1;10.6;;;;;;;8.27;63.83;;;;;
2023/12/18 17:02:16;;;;;;;19.1;10.6;;;;;;;8.3;63.97;;;;;
2023/12/18 17:13:16;;;;;;;19.1;10.6;;;;;;;8.21;64.19;;;;;
2023/12/18 17:24:17;;;;;;;16.4;9.4;;;;;;;7.98;64.76;;;;;
2023/12/18 17:34:16;;;;;;;16.4;9.4;;;;;;;7.74;65.53;;;;;
2023/12/18 17:44:16;;;;;;;16.4;9.4;;;;;;;7.56;66.24;;;;;
2023/12/18 17:55:16;;;;;;;23.3;12.7;;;;;;;7.29;66.92;;;;;
2023/12/18 18:06:19;;;;;;;23.3;12.7;;;;;;;7.13;67.65;;;;;
2023/12/18 18:16:16;;;;;;;23.3;12.7;;;;;;;7.08;68;;;;;
2023/12/18 18:27:17;;;;;;;22.6;13.6;;;;;;;7.24;67.36;;;;;
2023/12/18 18:38:16;;;;;;;22.6;13.6;;;;;;;7.34;66.45;;;;;
2023/12/18 18:49:16;;;;;;;18.2;11.4;;;;;;;7.43;66.24;;;;;
2023/12/18 18:59:16;;;;;;;18.2;11.4;;;;;;;7.45;66.12;;;;;
2023/12/18 19:09:16;;;;;;;18.2;11.4;;;;;;;7.43;65.96;;;;;
2023/12/18 19:19:16;;;;;;;21.9;12.8;;;;;;;7.45;65.76;;;;;
2023/12/18 19:29:16;;;;;;;21.9;12.8;;;;;;;7.46;65.51;;;;;
2023/12/18 19:40:16;;;;;;;21.9;12.8;;;;;;;7.42;65.79;;;;;
2023/12/18 19:50:16;;;;;;;27.7;15.4;;;;;;;7.34;66.21;;;;;
2023/12/18 20:01:18;;;;;;;27.7;15.4;;;;;;;7.16;66.54;;;;;
2023/12/18 20:11:17;;;;;;;27.7;15.4;;;;;;;6.93;67.24;;;;;
2023/12/18 20:22:16;;;;;;;26.1;17.1;;;;;;;6.77;67.62;;;;;
2023/12/18 20:32:16;;;;;;;26.1;17.1;;;;;;;6.69;67.79;;;;;
2023/12/18 20:43:16;;;;;;;26.1;17.1;;;;;;;6.7;68.04;;;;;
2023/12/18 20:53:16;;;;;;;28.6;16.1;;;;;;;6.61;68.01;;;;;
2023/12/18 21:03:16;;;;;;;28.6;16.1;;;;;;;6.51;68.14;;;;;
2023/12/18 21:14:16;;;;;;;28.6;16.1;;;;;;;6.51;67.79;;;;;
2023/12/18 21:24:16;;;;;;;27.3;14.2;;;;;;;6.47;67.93;;;;;
2023/12/18 21:34:16;;;;;;;27.3;14.2;;;;;;;6.42;67.94;;;;;
2023/12/18 21:45:16;;;;;;;27.3;14.2;;;;;;;6.35;67.79;;;;;
2023/12/18 21:55:16;;;;;;;23.4;11.5;;;;;;;6.25;67.96;;;;;
2023/12/18 22:05:16;;;;;;;23.4;11.5;;;;;;;6.17;68.86;;;;;
2023/12/18 22:15:16;;;;;;;23.4;11.5;;;;;;;6.01;69.04;;;;;
2023/12/18 22:26:16;;;;;;;19.7;12.6;;;;;;;5.93;69.41;;;;;
2023/12/18 22:36:16;;;;;;;19.7;12.6;;;;;;;5.81;69.71;;;;;
2023/12/18 22:47:16;;;;;;;19.7;12.6;;;;;;;5.72;70.32;;;;;
2023/12/18 22:58:16;;;;;;;21.1;11.9;;;;;;;5.64;70.34;;;;;
2023/12/18 23:08:16;;;;;;;21.1;11.9;;;;;;;5.54;70.64;;;;;
2023/12/18 23:18:16;;;;;;;17.8;12.4;;;;;;;5.35;70.76;;;;;
2023/12/18 23:29:16;;;;;;;17.8;12.4;;;;;;;5.03;71.27;;;;;
2023/12/18 23:39:16;;;;;;;17.8;12.4;;;;;;;4.67;71.97;;;;;
2023/12/18 23:50:16;;;;;;;18.6;10.9;;;;;;;4.27;72.28;;;;;
